Time;durP1;ratioP1;P1;durP2;ratioP2;P2;SDS_P1;SDS_P2;PMS_P1;PMS_P2;Temp;Humidity;BMP_temperature;BMP_pressure;BME280_temperature;BME280_humidity;BME280_pressure;Samples;Min_cycle;Max_cycle;Signal;HPM_P1;HPM_P2
2022/08/23 00:01:00;;;;;;;2.03;0.82;;;;;;;20.62;96.45;100414.28;5003504;28;21308;-68
2022/08/23 00:03:25;;;;;;;1.88;1.02;;;;;;;20.62;97.57;100413.47;5017007;28;20037;-69
2022/08/23 00:05:50;;;;;;;1.33;1.20;;;;;;;20.61;97.39;100415.47;5014317;28;20026;-68
2022/08/23 00:08:16;;;;;;;3.40;1.45;;;;;;;20.60;98.76;100411.00;5017703;28;20056;-69
2022/08/23 00:10:41;;;;;;;1.80;1.30;;;;;;;20.59;98.38;100415.03;5003510;28;20042;-68
2022/08/23 00:13:07;;;;;;;3.95;1.20;;;;;;;20.58;97.40;100407.72;5019603;28;20037;-69
2022/08/23 00:15:33;;;;;;;3.88;1.63;;;;;;;20.57;99.39;100411.75;5018551;28;20133;-69
2022/08/23 00:17:59;;;;;;;1.50;1.40;;;;;;;20.55;99.74;100404.81;5001073;28;20037;-69
2022/08/23 00:20:25;;;;;;;1.95;1.15;;;;;;;20.53;98.30;100400.38;5020553;28;20505;-69
2022/08/23 00:22:50;;;;;;;2.33;1.30;;;;;;;20.55;97.91;100397.19;4996079;28;20025;-68
2022/08/23 00:25:16;;;;;;;3.85;1.50;;;;;;;20.53;98.16;100399.53;5017572;28;20547;-69
2022/08/23 00:27:42;;;;;;;3.50;1.17;;;;;;;20.52;97.67;100397.88;5016084;28;20021;-68
2022/08/23 00:30:09;;;;;;;2.38;1.30;;;;;;;20.50;96.94;100395.44;5022797;28;20107;-69
2022/08/23 00:32:35;;;;;;;4.30;1.20;;;;;;;20.48;97.41;100399.81;5032635;28;20045;-69
2022/08/23 00:35:01;;;;;;;2.72;1.40;;;;;;;20.47;97.11;100387.66;5022829;28;20540;-69
2022/08/23 00:37:27;;;;;;;2.55;1.15;;;;;;;20.45;96.41;100394.88;4996315;28;20025;-69
2022/08/23 00:39:53;;;;;;;2.90;1.63;;;;;;;20.39;99.83;100394.31;5005486;28;20033;-69
2022/08/23 00:48:11;;;;;;;2.45;1.27;;;;;;;20.31;96.83;100398.16;5040710;28;20036;-69
2022/08/23 00:50:40;;;;;;;1.92;1.25;;;;;;;20.28;96.83;100394.06;5022774;28;20029;-69
2022/08/23 00:53:13;;;;;;;2.10;1.58;;;;;;;20.28;96.56;100394.06;5022609;28;20127;-69
2022/08/23 00:55:40;;;;;;;2.05;1.20;;;;;;;20.24;96.63;100390.31;5004366;28;20045;-69
2022/08/23 00:58:06;;;;;;;1.63;1.30;;;;;;;20.21;96.50;100393.84;5022437;28;20036;-69
2022/08/23 01:00:31;;;;;;;2.88;1.63;;;;;;;20.20;96.85;100392.22;5011000;28;20044;-69
2022/08/23 01:02:57;;;;;;;2.83;1.30;;;;;;;20.17;97.17;100387.31;5020439;28;20040;-69
2022/08/23 01:05:25;;;;;;;1.92;1.20;;;;;;;20.16;95.88;100401.75;5006454;28;20429;-69
2022/08/23 01:07:54;;;;;;;1.30;1.20;;;;;;;20.11;95.64;100399.22;5019722;28;20030;-68
2022/08/23 01:10:26;;;;;;;3.17;1.50;;;;;;;20.09;96.13;100393.94;5000633;28;20037;-69
2022/08/23 01:12:58;;;;;;;3.88;1.40;;;;;;;20.07;95.23;100396.31;5019511;28;20388;-69
2022/08/23 01:15:45;;;;;;;2.28;1.60;;;;;;;20.02;95.42;100393.75;4977110;28;20036;-69
2022/08/23 01:18:10;;;;;;;1.77;1.23;;;;;;;19.99;94.96;100397.28;5038921;28;20083;-69
2022/08/23 01:21:09;;;;;;;3.15;1.85;;;;;;;19.95;95.20;100399.19;5018783;28;20064;-69
2022/08/23 01:23:54;;;;;;;2.67;1.40;;;;;;;19.89;94.85;100392.97;5041236;28;20037;-69
2022/08/23 01:26:21;;;;;;;3.17;1.70;;;;;;;19.85;95.35;100400.53;5022289;28;20067;-69
2022/08/23 01:28:47;;;;;;;2.28;1.30;;;;;;;19.79;95.50;100397.16;5005041;28;20082;-69
2022/08/23 01:31:13;;;;;;;1.55;1.30;;;;;;;19.77;95.58;100401.50;4996767;28;20029;-69
2022/08/23 01:33:39;;;;;;;4.70;1.50;;;;;;;19.72;96.20;100404.56;5038340;28;20033;-68
2022/08/23 01:36:07;;;;;;;4.80;1.55;;;;;;;19.68;96.14;100400.84;5038490;28;20033;-69
2022/08/23 01:38:32;;;;;;;1.73;1.30;;;;;;;19.63;97.00;100402.69;5005354;28;20066;-69
2022/08/23 01:40:58;;;;;;;1.92;1.52;;;;;;;19.58;95.56;100400.13;4998324;28;20541;-69
2022/08/23 01:43:24;;;;;;;3.90;1.60;;;;;;;19.57;95.20;100397.69;5015946;28;20122;-69
2022/08/23 01:45:50;;;;;;;1.73;1.45;;;;;;;19.54;95.38;100404.03;5005506;28;20025;-69
2022/08/23 01:48:16;;;;;;;2.40;1.33;;;;;;;19.52;95.97;100397.94;5004940;28;20029;-69
2022/08/23 01:50:42;;;;;;;1.83;1.30;;;;;;;19.51;96.12;100404.75;5021729;28;20033;-69
2022/08/23 01:53:07;;;;;;;2.60;1.45;;;;;;;19.52;96.03;100406.38;4988278;28;20033;-68
2022/08/23 01:55:33;;;;;;;3.15;1.20;;;;;;;19.50;95.58;100411.53;5024172;28;20029;-69
2022/08/23 01:58:00;;;;;;;1.95;1.45;;;;;;;19.48;96.63;100411.91;5005150;28;20392;-69
2022/08/23 02:00:29;;;;;;;3.30;1.50;;;;;;;19.49;97.91;100421.19;5018270;28;20025;-68
2022/08/23 02:02:55;;;;;;;1.88;1.45;;;;;;;19.47;98.79;100418.69;5005698;28;20029;-69
2022/08/23 02:05:21;;;;;;;1.98;1.50;;;;;;;19.49;98.24;100421.19;5021581;28;20057;-69
2022/08/23 02:07:47;;;;;;;3.17;1.80;;;;;;;19.46;99.77;100413.44;5018337;28;20112;-69
2022/08/23 02:10:12;;;;;;;2.55;1.50;;;;;;;19.48;96.92;100411.91;5005846;28;20125;-69
2022/08/23 02:12:38;;;;;;;1.60;1.50;;;;;;;19.48;98.77;100403.47;5037377;28;20040;-69
2022/08/23 02:15:04;;;;;;;2.67;1.50;;;;;;;19.49;98.36;100412.72;5059714;28;20424;-69
2022/08/23 02:17:29;;;;;;;2.17;1.70;;;;;;;19.50;99.71;100400.28;4987500;28;20477;-69
2022/08/23 02:19:54;;;;;;;3.08;1.60;;;;;;;19.51;98.68;100407.56;5021486;28;20037;-69
2022/08/23 02:22:20;;;;;;;1.90;1.50;;;;;;;19.52;98.42;100406.38;5003867;28;20486;-69
2022/08/23 02:24:47;;;;;;;4.53;1.70;;;;;;;19.55;99.00;100411.28;5021692;28;20119;-68
2022/08/23 02:27:16;;;;;;;4.32;2.25;;;;;;;19.53;100.00;100411.66;5021440;28;20079;-69
2022/08/23 02:29:43;;;;;;;3.42;1.67;;;;;;;19.55;100.00;100411.28;4999493;28;20041;-68
2022/08/23 02:32:09;;;;;;;2.17;1.42;;;;;;;19.55;100.00;100419.75;5006547;28;20021;-68
2022/08/23 02:34:35;;;;;;;1.77;1.60;;;;;;;19.57;100.00;100415.41;5037947;28;20041;-69
2022/08/23 02:37:00;;;;;;;2.72;1.85;;;;;;;19.57;100.00;100414.56;5021340;28;20029;-68
2022/08/23 02:39:26;;;;;;;4.47;1.70;;;;;;;19.57;100.00;100415.41;5004090;28;20059;-69
2022/08/23 02:41:52;;;;;;;3.22;1.95;;;;;;;19.57;100.00;100412.56;5008393;28;20025;-69
2022/08/23 02:44:18;;;;;;;2.50;1.95;;;;;;;19.58;99.86;100413.38;5023976;28;20370;-69
2022/08/23 02:46:44;;;;;;;2.00;1.80;;;;;;;19.59;100.00;100412.22;5024925;28;20102;-69
2022/08/23 02:49:10;;;;;;;2.33;2.03;;;;;;;19.59;100.00;100413.03;5022060;28;20041;-69
2022/08/23 02:51:36;;;;;;;2.25;1.85;;;;;;;19.60;100.00;100416.69;5024010;28;20025;-69
2022/08/23 02:54:01;;;;;;;3.00;1.67;;;;;;;19.61;100.00;100415.50;5024968;28;20508;-69
2022/08/23 02:56:27;;;;;;;2.55;2.17;;;;;;;19.61;100.00;100415.50;5024583;28;20031;-69
2022/08/23 02:58:52;;;;;;;2.42;1.98;;;;;;;19.61;100.00;100412.66;4992725;28;20493;-69
2022/08/23 03:01:20;;;;;;;3.70;1.85;;;;;;;19.62;100.00;100419.97;5007991;28;20083;-69
2022/08/23 03:03:45;;;;;;;1.95;1.60;;;;;;;19.61;100.00;100407.03;5007933;28;20071;-69
2022/08/23 03:06:14;;;;;;;4.32;1.92;;;;;;;19.62;98.79;100411.50;5041609;28;20029;-69
2022/08/23 03:08:40;;;;;;;3.50;2.00;;;;;;;19.65;99.70;100416.44;5005059;28;20108;-69
2022/08/23 03:11:16;;;;;;;3.75;1.90;;;;;;;19.65;100.00;100405.16;4992101;28;20089;-69
2022/08/23 03:13:42;;;;;;;2.53;1.77;;;;;;;19.64;100.00;100411.97;5025091;28;20123;-69
2022/08/23 03:16:08;;;;;;;3.97;1.92;;;;;;;19.64;99.90;100414.81;5017026;28;20029;-69
2022/08/23 03:18:34;;;;;;;2.20;1.77;;;;;;;19.64;99.98;100403.53;5008116;28;20029;-69
2022/08/23 03:21:00;;;;;;;3.72;2.42;;;;;;;19.64;100.00;100414.81;5021382;28;20054;-69
2022/08/23 03:23:26;;;;;;;4.82;1.90;;;;;;;19.65;100.00;100416.44;5004605;28;20029;-69
2022/08/23 03:25:51;;;;;;;3.47;2.10;;;;;;;19.63;100.00;100415.97;5020581;28;20057;-69
2022/08/23 03:28:16;;;;;;;2.33;2.13;;;;;;;19.63;100.00;100418.78;5020513;28;20072;-69
2022/08/23 03:30:42;;;;;;;3.17;2.17;;;;;;;19.62;100.00;100417.97;5020654;28;20103;-69
2022/08/23 03:33:07;;;;;;;6.18;2.75;;;;;;;19.63;100.00;100418.78;5037046;28;20037;-69
2022/08/23 03:35:33;;;;;;;4.55;2.70;;;;;;;19.60;100.00;100419.50;5004419;28;20087;-69
2022/08/23 03:37:58;;;;;;;3.35;2.45;;;;;;;19.60;100.00;100420.31;5020866;28;20033;-69
2022/08/23 03:40:24;;;;;;;4.07;2.20;;;;;;;19.62;100.00;100419.97;5004238;28;20036;-69
2022/08/23 03:42:50;;;;;;;3.78;2.38;;;;;;;19.62;99.89;100423.59;5013665;28;20053;-69
2022/08/23 03:45:16;;;;;;;3.40;2.15;;;;;;;19.62;99.88;100422.78;5002233;28;20045;-69
2022/08/23 03:47:42;;;;;;;3.38;2.38;;;;;;;19.61;100.00;100429.56;5036396;28;20116;-69
2022/08/23 03:50:08;;;;;;;4.13;2.45;;;;;;;19.60;99.61;100427.94;5004258;28;20533;-69
2022/08/23 03:52:33;;;;;;;3.75;2.10;;;;;;;19.61;100.00;100432.38;5016187;28;20103;-69
2022/08/23 03:54:59;;;;;;;5.10;3.03;;;;;;;19.63;100.00;100427.22;4988351;28;20038;-69
2022/08/23 03:57:24;;;;;;;3.13;2.45;;;;;;;19.62;100.00;100431.22;5019449;28;20029;-69
2022/08/23 03:59:50;;;;;;;5.13;3.15;;;;;;;19.61;100.00;100433.25;5017653;28;20386;-69
2022/08/23 04:02:15;;;;;;;3.25;2.35;;;;;;;19.62;100.00;100423.59;5004033;28;20033;-69
2022/08/23 04:04:41;;;;;;;3.80;2.63;;;;;;;19.60;100.00;100423.13;5020414;28;20034;-69
2022/08/23 04:07:07;;;;;;;3.85;2.95;;;;;;;19.61;100.00;100421.97;5017151;28;20037;-69
2022/08/23 04:09:33;;;;;;;3.55;2.25;;;;;;;19.60;100.00;100427.94;5020213;28;20436;-69
2022/08/23 04:11:58;;;;;;;3.00;2.70;;;;;;;19.59;100.00;100427.13;5003514;28;20034;-69
2022/08/23 04:14:24;;;;;;;3.10;2.80;;;;;;;19.60;100.00;100431.56;5020129;28;20060;-69
2022/08/23 04:16:49;;;;;;;4.25;2.90;;;;;;;19.58;100.00;100431.09;5014365;28;20045;-69
2022/08/23 04:19:15;;;;;;;2.28;2.05;;;;;;;19.58;100.00;100427.47;4987299;28;20097;-69
2022/08/23 04:21:47;;;;;;;3.30;2.53;;;;;;;19.57;100.00;100431.47;5024415;28;20080;-68
2022/08/23 04:24:13;;;;;;;4.50;2.40;;;;;;;19.57;100.00;100431.47;5020313;28;20052;-68
2022/08/23 04:26:39;;;;;;;2.50;2.30;;;;;;;19.58;100.00;100433.91;5009264;28;20368;-69
2022/08/23 04:29:04;;;;;;;3.20;2.08;;;;;;;19.58;100.00;100433.09;5019869;28;20033;-68
2022/08/23 04:31:32;;;;;;;5.07;2.40;;;;;;;19.58;100.00;100427.47;5001659;28;20054;-68
2022/08/23 04:33:57;;;;;;;3.08;2.20;;;;;;;19.58;100.00;100427.47;5019915;28;20068;-69
2022/08/23 04:36:23;;;;;;;5.93;2.72;;;;;;;19.57;100.00;100425.84;5020088;28;20033;-68
2022/08/23 04:38:48;;;;;;;7.00;2.75;;;;;;;19.57;100.00;100437.94;5019870;28;20044;-68
2022/08/23 04:43:58;;;;;;;4.30;3.10;;;;;;;19.56;100.00;100438.31;5006606;28;20021;-69
2022/08/23 04:46:23;;;;;;;2.90;2.25;;;;;;;19.55;100.00;100433.81;5000794;28;20026;-69
2022/08/23 04:48:49;;;;;;;4.38;3.55;;;;;;;19.56;100.00;100441.13;5003227;28;20037;-69
2022/08/23 04:51:15;;;;;;;2.85;2.50;;;;;;;19.56;100.00;100441.94;5001454;28;20038;-69
2022/08/23 04:53:40;;;;;;;3.33;2.58;;;;;;;19.54;100.00;100441.47;5036717;28;20030;-68
2022/08/23 04:56:07;;;;;;;3.35;2.67;;;;;;;19.55;100.00;100439.47;5003276;28;20021;-69
2022/08/23 04:58:33;;;;;;;3.15;2.70;;;;;;;19.54;100.00;100449.09;5002701;28;20036;-69
2022/08/23 05:00:59;;;;;;;2.75;2.50;;;;;;;19.54;100.00;100444.28;4999775;28;20034;-69
2022/08/23 05:03:25;;;;;;;3.55;2.08;;;;;;;19.54;100.00;100443.47;5018033;28;20108;-69
2022/08/23 05:05:52;;;;;;;3.20;2.72;;;;;;;19.54;100.00;100443.47;4986439;28;20040;-69
2022/08/23 05:08:17;;;;;;;4.63;2.75;;;;;;;19.55;100.00;100439.47;5018818;28;20041;-69
2022/08/23 05:10:43;;;;;;;3.15;2.38;;;;;;;19.54;100.00;100444.28;5019348;28;20052;-69
2022/08/23 05:13:08;;;;;;;2.92;2.30;;;;;;;19.54;100.00;100446.28;5002275;28;20697;-69
2022/08/23 05:15:34;;;;;;;4.30;2.50;;;;;;;19.54;100.00;100451.91;5013812;28;20037;-69
2022/08/23 05:17:59;;;;;;;4.90;2.15;;;;;;;19.53;100.00;100458.69;5024769;28;20033;-69
2022/08/23 05:20:25;;;;;;;3.40;2.28;;;;;;;19.54;100.00;100461.19;5018942;28;20022;-69
2022/08/23 05:22:50;;;;;;;3.03;1.90;;;;;;;19.54;100.00;100466.00;5034644;28;20048;-69
2022/08/23 05:25:16;;;;;;;3.70;2.53;;;;;;;19.54;100.00;100463.19;5016936;28;20065;-69
2022/08/23 05:27:42;;;;;;;2.72;2.08;;;;;;;19.52;100.00;100466.34;4985959;28;20060;-69
2022/08/23 05:30:08;;;;;;;3.28;2.05;;;;;;;19.54;100.00;100471.63;5034825;28;20030;-69
2022/08/23 05:32:33;;;;;;;4.95;2.55;;;;;;;19.54;100.00;100468.81;5000883;28;20082;-69
2022/08/23 05:34:59;;;;;;;3.45;2.25;;;;;;;19.52;100.00;100466.34;5018132;28;20033;-69
2022/08/23 05:37:24;;;;;;;3.08;1.90;;;;;;;19.53;100.00;100461.53;5018756;28;20033;-71
2022/08/23 05:39:50;;;;;;;2.70;2.20;;;;;;;19.53;100.00;100465.19;5002244;28;20032;-72
2022/08/23 05:42:15;;;;;;;2.10;1.90;;;;;;;19.54;100.00;100466.00;5000082;28;20080;-72
2022/08/23 05:44:41;;;;;;;4.68;2.28;;;;;;;19.55;100.00;100467.63;5018749;28;20431;-72
2022/08/23 05:47:08;;;;;;;3.83;2.33;;;;;;;19.56;100.00;100475.72;5018545;28;20041;-72
2022/08/23 05:49:35;;;;;;;3.30;2.35;;;;;;;19.56;100.00;100480.56;5018639;28;20041;-72
2022/08/23 05:52:03;;;;;;;3.03;2.60;;;;;;;19.56;100.00;100480.56;5001973;28;20057;-72
2022/08/23 05:54:28;;;;;;;4.65;2.67;;;;;;;19.58;100.00;100486.63;5002214;28;20112;-72
2022/08/23 05:56:54;;;;;;;3.25;2.30;;;;;;;19.56;100.00;100475.72;4998569;28;20088;-72
2022/08/23 05:59:19;;;;;;;3.33;2.40;;;;;;;19.58;100.00;100478.19;5001804;28;20041;-71
2022/08/23 06:01:45;;;;;;;5.03;2.50;;;;;;;19.59;100.00;100479.84;5001639;28;20032;-72
2022/08/23 06:04:11;;;;;;;3.40;2.30;;;;;;;19.60;100.00;100481.47;5018413;28;20033;-72
2022/08/23 06:06:36;;;;;;;4.13;3.03;;;;;;;19.60;100.00;100487.09;5001721;28;20032;-72
2022/08/23 06:09:02;;;;;;;3.00;2.17;;;;;;;19.62;100.00;100490.38;5025304;28;20033;-72
2022/08/23 06:11:28;;;;;;;3.90;2.63;;;;;;;19.64;100.00;100488.03;5014925;28;20033;-72
2022/08/23 06:13:55;;;;;;;2.70;2.05;;;;;;;19.64;100.00;100485.22;4999310;28;20042;-72
2022/08/23 06:16:28;;;;;;;3.55;2.60;;;;;;;19.66;100.00;100490.53;4996355;28;20033;-72
2022/08/23 06:18:54;;;;;;;5.85;1.80;;;;;;;19.68;100.00;100491.00;5006372;28;20084;-72
2022/08/23 06:21:19;;;;;;;2.67;2.03;;;;;;;19.70;100.00;100488.66;5022206;28;20046;-72
2022/08/23 06:23:48;;;;;;;4.28;2.70;;;;;;;19.72;100.00;100484.28;5022224;28;20032;-72
2022/08/23 06:26:24;;;;;;;4.47;2.50;;;;;;;19.76;100.00;100490.84;5022914;28;20047;-72
2022/08/23 06:28:51;;;;;;;3.42;2.35;;;;;;;19.78;100.00;100491.31;5022656;28;20490;-72
2022/08/23 06:31:44;;;;;;;3.08;2.10;;;;;;;19.82;100.00;100499.88;5022312;28;20057;-72
2022/08/23 06:34:06;;;;;;;4.72;2.38;;;;;;;19.85;100.00;100497.16;5025064;28;20049;-73
2022/08/23 06:36:32;;;;;;;3.13;2.75;;;;;;;19.88;100.00;100492.81;4987213;28;20033;-72
2022/08/23 06:38:57;;;;;;;2.33;2.10;;;;;;;19.90;100.00;100498.91;5027937;28;20051;-72
2022/08/23 06:41:23;;;;;;;2.90;2.17;;;;;;;19.94;100.00;100510.28;5020752;28;20022;-72
2022/08/23 06:43:49;;;;;;;3.08;2.00;;;;;;;19.94;100.00;100511.09;4996831;28;20044;-72
2022/08/23 06:46:17;;;;;;;4.85;2.10;;;;;;;19.97;100.00;100518.00;5038222;28;20064;-72
2022/08/23 06:48:43;;;;;;;2.20;2.00;;;;;;;19.97;100.00;100518.00;5000755;28;20030;-72
2022/08/23 06:51:21;;;;;;;3.53;2.30;;;;;;;19.98;100.00;100505.59;5037312;28;20072;-72
2022/08/23 06:53:47;;;;;;;3.88;2.75;;;;;;;20.00;100.00;100506.03;5002089;28;20084;-71
2022/08/23 06:56:13;;;;;;;2.35;1.80;;;;;;;20.02;100.00;100509.31;5016867;28;20021;-73
2022/08/23 06:58:38;;;;;;;2.72;1.77;;;;;;;20.03;100.00;100510.94;5000617;28;20037;-73
2022/08/23 07:01:39;;;;;;;2.45;1.95;;;;;;;20.07;100.00;100512.69;5020919;28;20041;-73
2022/08/23 07:04:05;;;;;;;2.38;1.60;;;;;;;20.13;100.00;100513.25;5021149;28;20034;-72
2022/08/23 07:06:31;;;;;;;3.78;2.03;;;;;;;20.19;100.00;100523.09;5036762;28;20075;-73
2022/08/23 07:08:57;;;;;;;2.88;1.30;;;;;;;20.28;99.76;100512.50;5021714;28;20069;-73
2022/08/23 07:11:24;;;;;;;2.10;1.52;;;;;;;20.40;98.26;100519.25;5021174;28;20473;-73
2022/08/23 07:13:51;;;;;;;2.45;1.48;;;;;;;20.49;98.57;100511.44;5026377;28;20036;-73
2022/08/23 07:16:17;;;;;;;1.73;1.55;;;;;;;20.62;98.70;100515.06;4994433;28;20038;-73
2022/08/23 07:18:44;;;;;;;1.65;1.55;;;;;;;20.74;97.08;100515.78;5005152;28;20053;-73
2022/08/23 07:21:11;;;;;;;3.25;1.65;;;;;;;20.91;96.72;100520.25;5011799;28;20053;-73
2022/08/23 07:23:37;;;;;;;3.70;1.30;;;;;;;21.09;95.82;100511.41;5003837;28;20036;-73
2022/08/23 07:26:06;;;;;;;1.90;1.50;;;;;;;21.27;94.30;100523.97;5020806;28;20440;-73
2022/08/23 07:28:31;;;;;;;3.45;1.83;;;;;;;21.48;98.51;100512.41;5020014;28;20632;-73
2022/08/23 07:31:31;;;;;;;2.42;1.35;;;;;;;21.71;94.67;100525.81;5021179;28;20030;-73
2022/08/23 07:33:57;;;;;;;7.90;1.80;;;;;;;21.95;95.91;100516.25;5002077;28;20118;-73
2022/08/23 07:36:23;;;;;;;1.58;1.45;;;;;;;22.13;95.40;100519.47;5004598;28;20038;-73
2022/08/23 07:38:49;;;;;;;2.33;1.50;;;;;;;22.27;94.94;100516.94;4988413;28;20124;-73
2022/08/23 07:41:14;;;;;;;2.17;1.40;;;;;;;22.39;96.41;100522.44;5001871;28;20402;-73
2022/08/23 07:43:40;;;;;;;3.38;1.50;;;;;;;22.51;94.22;100519.44;5036253;28;20037;-73
2022/08/23 07:46:06;;;;;;;1.20;1.10;;;;;;;22.65;92.82;100518.91;5020675;28;20025;-73
2022/08/23 07:48:32;;;;;;;1.50;1.17;;;;;;;22.82;91.82;100526.09;4993436;28;20041;-73
2022/08/23 07:50:59;;;;;;;1.30;1.00;;;;;;;22.96;91.96;100528.38;5038162;28;20052;-73
2022/08/23 07:53:25;;;;;;;1.55;1.17;;;;;;;23.10;90.00;100525.78;4984291;28;20041;-73
2022/08/23 07:55:51;;;;;;;2.00;1.02;;;;;;;23.25;88.67;100534.53;5017544;28;20026;-73
2022/08/23 07:58:16;;;;;;;1.10;1.00;;;;;;;23.39;87.30;100524.22;5020136;28;20030;-73
2022/08/23 08:00:42;;;;;;;1.20;0.90;;;;;;;23.53;87.26;100534.16;5036917;28;20032;-73
2022/08/23 08:03:09;;;;;;;2.40;0.90;;;;;;;23.62;88.75;100538.34;5037916;28;20057;-73
2022/08/23 08:05:34;;;;;;;1.45;0.80;;;;;;;23.74;86.31;100540.16;5020342;28;20036;-73
2022/08/23 08:08:01;;;;;;;2.17;0.80;;;;;;;23.84;86.14;100536.66;5020366;28;20488;-73
2022/08/23 08:10:26;;;;;;;1.80;0.60;;;;;;;23.91;85.50;100535.94;5004056;28;20045;-73
2022/08/23 08:12:52;;;;;;;1.40;0.60;;;;;;;23.96;85.30;100538.44;5011863;28;20030;-73
2022/08/23 08:15:17;;;;;;;1.23;0.70;;;;;;;24.00;86.67;100536.47;5014353;28;20031;-73
2022/08/23 08:17:46;;;;;;;1.48;0.80;;;;;;;24.07;87.00;100547.06;5004051;28;20041;-73
2022/08/23 08:20:11;;;;;;;0.60;0.60;;;;;;;24.08;86.79;100546.72;5019864;28;20037;-72
2022/08/23 08:22:37;;;;;;;1.45;0.63;;;;;;;24.13;85.94;100551.22;5036086;28;20045;-73
2022/08/23 08:25:03;;;;;;;0.85;0.50;;;;;;;24.15;86.57;100548.00;5011944;28;20512;-73
2022/08/23 08:27:28;;;;;;;1.73;0.50;;;;;;;24.15;86.03;100543.13;5035661;28;20033;-73
2022/08/23 08:29:54;;;;;;;0.65;0.60;;;;;;;24.19;85.85;100555.34;5019698;28;20038;-73
2022/08/23 08:32:19;;;;;;;0.60;0.50;;;;;;;24.23;84.95;100544.84;5018711;28;20067;-73
2022/08/23 08:34:45;;;;;;;0.70;0.40;;;;;;;24.26;84.71;100549.75;4995023;28;20037;-73
2022/08/23 08:37:10;;;;;;;1.45;0.55;;;;;;;24.28;85.14;100552.22;5034392;28;20481;-73
2022/08/23 08:39:43;;;;;;;0.63;0.50;;;;;;;24.30;85.09;100561.19;5018157;28;20033;-73
2022/08/23 08:42:11;;;;;;;1.60;0.52;;;;;;;24.31;85.34;100557.94;5001104;28;20410;-73
2022/08/23 08:44:53;;;;;;;2.92;0.47;;;;;;;24.34;84.97;100562.03;5035599;28;20037;-73
2022/08/23 08:47:24;;;;;;;0.50;0.50;;;;;;;24.37;84.50;100555.56;5016615;28;20034;-73
2022/08/23 08:50:05;;;;;;;2.05;0.60;;;;;;;24.37;83.74;100563.28;5030954;28;20033;-73
2022/08/23 08:52:42;;;;;;;1.02;0.60;;;;;;;24.37;84.35;100563.28;5032985;28;20433;-73
2022/08/23 08:55:13;;;;;;;0.98;0.63;;;;;;;24.40;84.25;100565.34;5019630;28;20116;-73
2022/08/23 08:57:42;;;;;;;0.80;0.50;;;;;;;24.40;83.90;100565.34;5017810;28;20038;-73
2022/08/23 09:00:12;;;;;;;1.15;0.65;;;;;;;24.46;84.52;100569.47;5019790;28;20083;-73
2022/08/23 09:02:37;;;;;;;1.58;0.45;;;;;;;24.51;82.93;100566.31;5035618;28;20068;-73
2022/08/23 09:05:07;;;;;;;1.25;0.57;;;;;;;24.60;84.41;100568.84;5002867;28;20153;-73
2022/08/23 09:07:41;;;;;;;2.08;0.43;;;;;;;24.69;84.51;100569.38;5003235;28;20028;-73
2022/08/23 09:10:43;;;;;;;0.85;0.50;;;;;;;24.77;84.10;100568.22;5035951;28;20037;-72
2022/08/23 09:13:30;;;;;;;2.20;0.40;;;;;;;24.87;84.24;100569.53;5030364;28;20045;-72
2022/08/23 09:16:30;;;;;;;0.95;0.50;;;;;;;24.96;82.75;100570.03;5016016;28;20033;-73
2022/08/23 09:18:55;;;;;;;1.23;0.40;;;;;;;25.07;83.13;100570.94;5030803;28;20034;-72
2022/08/23 09:21:21;;;;;;;1.50;0.50;;;;;;;25.16;82.42;100568.63;5010034;28;20052;-73
2022/08/23 09:23:48;;;;;;;3.08;0.40;;;;;;;25.25;81.94;100565.47;4996107;28;20045;-73
2022/08/23 09:26:29;;;;;;;0.90;0.30;;;;;;;25.34;81.82;100562.28;5018817;28;20128;-73
2022/08/23 09:29:02;;;;;;;1.13;0.40;;;;;;;25.48;81.72;100567.25;5018583;28;20155;-73
2022/08/23 09:31:44;;;;;;;1.80;0.50;;;;;;;25.57;80.20;100564.88;5019450;28;20037;-72
2022/08/23 09:34:22;;;;;;;0.63;0.40;;;;;;;25.68;79.03;100570.66;5018219;28;20033;-72
2022/08/23 09:36:48;;;;;;;1.63;0.30;;;;;;;25.76;78.31;100560.97;5002641;28;20044;-73
2022/08/23 09:39:33;;;;;;;2.83;0.40;;;;;;;25.79;78.57;100560.16;5018713;28;20030;-73
2022/08/23 09:41:58;;;;;;;1.15;0.40;;;;;;;25.83;78.57;100566.75;5002502;28;20025;-73
2022/08/23 09:44:35;;;;;;;0.60;0.30;;;;;;;25.88;77.94;100566.34;4998992;28;20026;-73
2022/08/23 09:47:14;;;;;;;1.42;0.40;;;;;;;25.88;78.74;100562.69;5015821;28;20037;-73
2022/08/23 09:49:41;;;;;;;0.63;0.40;;;;;;;25.90;78.65;100561.06;5019541;28;20060;-73
2022/08/23 09:52:26;;;;;;;0.40;0.30;;;;;;;25.91;77.62;100550.50;5018259;28;20056;-73
2022/08/23 09:55:01;;;;;;;0.32;0.30;;;;;;;25.93;78.45;100562.31;5031473;28;20041;-73
2022/08/23 09:57:28;;;;;;;2.13;0.30;;;;;;;25.96;78.42;100564.34;5013721;28;20120;-73
2022/08/23 09:59:55;;;;;;;0.93;0.30;;;;;;;26.00;77.42;100560.31;4980572;28;20030;-73
2022/08/23 10:02:20;;;;;;;0.88;0.40;;;;;;;26.07;77.26;100563.19;5018543;28;20017;-73
2022/08/23 10:04:55;;;;;;;1.05;0.40;;;;;;;26.17;75.87;100552.28;5045663;28;20025;-73
2022/08/23 10:07:37;;;;;;;0.77;0.50;;;;;;;26.24;75.63;100555.13;5017230;28;20045;-73
2022/08/23 10:10:12;;;;;;;1.05;0.52;;;;;;;26.33;75.62;100549.91;5035025;28;20049;-73
2022/08/23 10:12:38;;;;;;;0.35;0.30;;;;;;;26.41;75.39;100556.41;5034168;28;20038;-73
2022/08/23 10:15:04;;;;;;;0.95;0.55;;;;;;;26.43;75.64;100557.66;4996509;28;20363;-73
2022/08/23 10:17:45;;;;;;;2.67;0.60;;;;;;;26.48;75.57;100557.28;5014298;28;20033;-73
2022/08/23 10:20:49;;;;;;;13.52;0.68;;;;;;;26.49;75.48;100549.53;5012796;28;20496;-73
2022/08/23 10:23:32;;;;;;;1.27;0.35;;;;;;;26.45;76.38;100546.69;4997993;28;20429;-73
2022/08/23 10:25:58;;;;;;;0.35;0.35;;;;;;;26.47;76.34;100544.25;5034220;28;20037;-72
2022/08/23 10:29:39;;;;;;;0.50;0.30;;;;;;;26.48;75.09;100550.75;5018111;28;20043;-72
2022/08/23 10:32:38;;;;;;;0.85;0.50;;;;;;;26.52;75.39;100546.75;4977601;28;20039;-71
2022/08/23 10:35:45;;;;;;;0.82;0.30;;;;;;;26.56;75.78;100551.63;5027166;28;20034;-72
2022/08/23 10:38:25;;;;;;;0.55;0.30;;;;;;;26.58;75.43;100543.47;5025287;28;20053;-72
2022/08/23 10:41:02;;;;;;;1.60;0.30;;;;;;;26.61;75.30;100542.72;5035030;28;20120;-72
2022/08/23 10:43:49;;;;;;;1.90;0.50;;;;;;;26.64;75.22;100544.75;5017287;28;20079;-72
2022/08/23 10:46:14;;;;;;;1.95;0.40;;;;;;;26.71;74.84;100547.59;5035194;28;20060;-71
2022/08/23 10:48:59;;;;;;;0.98;0.40;;;;;;;26.71;75.69;100545.56;5017764;28;20037;-71
2022/08/23 10:51:36;;;;;;;1.40;0.50;;;;;;;26.79;74.49;100540.69;5001890;28;20080;-71
2022/08/23 10:54:17;;;;;;;2.70;0.50;;;;;;;26.84;73.36;100548.03;5018435;28;20038;-71
2022/08/23 10:56:43;;;;;;;1.70;0.30;;;;;;;26.86;73.53;100542.75;4981851;28;20030;-72
2022/08/23 10:59:15;;;;;;;0.93;0.40;;;;;;;26.93;72.88;100542.75;4998224;28;20041;-71
2022/08/23 11:02:02;;;;;;;2.05;0.45;;;;;;;27.01;72.33;100540.72;5020494;28;20029;-71
2022/08/23 11:05:00;;;;;;;1.08;0.20;;;;;;;27.08;71.84;100546.41;5021579;28;20034;-72
2022/08/23 11:07:31;;;;;;;0.95;0.20;;;;;;;27.09;71.74;100551.72;5020381;28;20037;-72
2022/08/23 11:10:16;;;;;;;0.28;0.22;;;;;;;27.13;70.84;100552.53;5020091;28;20402;-72
2022/08/23 11:12:54;;;;;;;0.20;0.20;;;;;;;27.17;70.96;100549.72;5034511;28;20073;-72
2022/08/23 11:15:42;;;;;;;0.82;0.20;;;;;;;27.17;71.50;100553.38;4983191;28;20021;-72
2022/08/23 11:18:41;;;;;;;1.30;0.40;;;;;;;27.12;71.35;100553.75;4994527;28;20052;-72
2022/08/23 11:21:16;;;;;;;0.63;0.30;;;;;;;27.18;70.66;100554.19;5013090;28;20065;-72
2022/08/23 11:23:47;;;;;;;1.30;0.30;;;;;;;27.16;70.80;100550.94;5038469;28;20032;-70
2022/08/23 11:26:22;;;;;;;1.85;0.28;;;;;;;27.14;70.79;100547.66;5004849;28;20098;-72
2022/08/23 11:28:49;;;;;;;0.40;0.30;;;;;;;27.07;71.24;100554.16;5041980;28;20397;-72
2022/08/23 11:31:21;;;;;;;0.20;0.20;;;;;;;27.07;71.34;100554.16;5021043;28;20071;-72
2022/08/23 11:34:23;;;;;;;2.28;0.20;;;;;;;27.05;71.63;100547.22;5036851;28;20049;-72
2022/08/23 11:37:19;;;;;;;0.68;0.50;;;;;;;26.99;71.14;100551.72;5016803;28;20143;-72
2022/08/23 11:40:07;;;;;;;1.08;0.30;;;;;;;26.96;71.27;100547.63;5035356;28;20030;-72
2022/08/23 11:42:32;;;;;;;0.88;0.32;;;;;;;26.94;70.83;100538.66;5018962;28;20029;-72